^^
Paulen-Weather Station Historical Data
Daily Summary for March 16, 2022 Units:  Metric    English   Both
Daily Weekly Monthly Yearly Custom
  High: Low: Average:
Temperature: 4 °C 3 °C 3.6 °C
Dew Point: 4 °C 2 °C 3.3 °C
Humidity: 98% 95% 97%
Wind Speed: 21km/h 0km/h 9.7km/h
Wind Gust: 20km/h - -
Wind- - ENE
Pressure: 1030.04 hPa 1025.64 hPa -
Precipitation: 0 mm    
Historical Graphs
 
 
Tabular Data for March 16, 2022
Time Temperature Dew Point Pressure Wind Wind Speed Wind Gust Humidity Rainfall Rate (Hourly) solar
00:04 3 °C 3 °C 1025.64 hPa N 5 km/h 4 km/h 95% 0 mm 0 W/m2
00:09 3 °C 3 °C 1025.64 hPa NNE 5 km/h 5 km/h 96% 0 mm 0 W/m2
00:14 3 °C 3 °C 1025.64 hPa NNE 6 km/h 6 km/h 96% 0 mm 0 W/m2
00:19 3 °C 3 °C 1025.67 hPa NNE 5 km/h 4 km/h 96% 0 mm 0 W/m2
00:24 3 °C 3 °C 1025.8 hPa NNE 4 km/h 4 km/h 96% 0 mm 0 W/m2
00:29 3 °C 3 °C 1025.8 hPa N 6 km/h 5 km/h 96% 0 mm 0 W/m2
00:34 3 °C 3 °C 1025.8 hPa NNE 7 km/h 6 km/h 96% 0 mm 0 W/m2
00:39 3 °C 3 °C 1025.8 hPa N 7 km/h 7 km/h 96% 0 mm 0 W/m2
00:44 3 °C 3 °C 1025.84 hPa NNE 6 km/h 7 km/h 96% 0 mm 0 W/m2
00:49 3 °C 3 °C 1025.84 hPa N 10 km/h 10 km/h 96% 0 mm 0 W/m2
00:54 3 °C 3 °C 1025.84 hPa NNE 11 km/h 9 km/h 96% 0 mm 0 W/m2
00:59 3 °C 3 °C 1025.84 hPa N 10 km/h 10 km/h 96% 0 mm 0 W/m2
01:04 3 °C 3 °C 1025.97 hPa N 8 km/h 9 km/h 96% 0 mm 0 W/m2
01:09 3 °C 2 °C 1025.94 hPa N 7 km/h 7 km/h 96% 0 mm 0 W/m2
01:14 3 °C 3 °C 1025.91 hPa N 7 km/h 6 km/h 96% 0 mm 0 W/m2
01:19 3 °C 3 °C 1025.94 hPa NNE 6 km/h 6 km/h 96% 0 mm 0 W/m2
01:24 3 °C 2 °C 1025.94 hPa NNE 6 km/h 5 km/h 96% 0 mm 0 W/m2
01:29 3 °C 2 °C 1026.11 hPa N 6 km/h 6 km/h 96% 0 mm 0 W/m2
01:34 3 °C 2 °C 1026.18 hPa N 7 km/h 6 km/h 96% 0 mm 0 W/m2
01:39 3 °C 2 °C 1026.14 hPa N 7 km/h 8 km/h 96% 0 mm 0 W/m2
01:44 3 °C 3 °C 1026.21 hPa N 7 km/h 7 km/h 96% 0 mm 0 W/m2
01:49 3 °C 3 °C 1026.31 hPa N 6 km/h 5 km/h 96% 0 mm 0 W/m2
01:54 3 °C 3 °C 1026.35 hPa N 6 km/h 6 km/h 97% 0 mm 0 W/m2
01:59 3 °C 3 °C 1026.38 hPa NNE 6 km/h 4 km/h 97% 0 mm 0 W/m2
02:04 3 °C 3 °C 1026.38 hPa NNE 6 km/h 6 km/h 96% 0 mm 0 W/m2
02:09 3 °C 3 °C 1026.38 hPa NNE 6 km/h 6 km/h 96% 0 mm 0 W/m2
02:14 3 °C 2 °C 1026.48 hPa NNE 5 km/h 5 km/h 96% 0 mm 0 W/m2
02:19 3 °C 2 °C 1026.48 hPa NNE 5 km/h 5 km/h 96% 0 mm 0 W/m2
02:24 3 °C 2 °C 1026.48 hPa NNE 6 km/h 5 km/h 96% 0 mm 0 W/m2
02:29 3 °C 2 °C 1026.41 hPa NNE 6 km/h 5 km/h 96% 0 mm 0 W/m2
02:34 3 °C 2 °C 1026.41 hPa NNE 4 km/h 5 km/h 96% 0 mm 0 W/m2
02:39 3 °C 2 °C 1026.45 hPa NNE 4 km/h 4 km/h 96% 0 mm 0 W/m2
02:44 3 °C 2 °C 1026.52 hPa NNE 3 km/h 2 km/h 96% 0 mm 0 W/m2
02:49 3 °C 2 °C 1026.55 hPa NNE 5 km/h 4 km/h 96% 0 mm 0 W/m2
02:54 3 °C 3 °C 1026.58 hPa NNE 5 km/h 4 km/h 97% 0 mm 0 W/m2
02:59 3 °C 3 °C 1026.62 hPa N 5 km/h 3 km/h 97% 0 mm 0 W/m2
03:04 3 °C 3 °C 1026.58 hPa N 6 km/h 6 km/h 97% 0 mm 0 W/m2
03:09 3 °C 3 °C 1026.58 hPa NNE 7 km/h 7 km/h 96% 0 mm 0 W/m2
03:14 3 °C 2 °C 1026.55 hPa NNE 6 km/h 5 km/h 96% 0 mm 0 W/m2
03:19 3 °C 2 °C 1026.62 hPa N 7 km/h 6 km/h 96% 0 mm 0 W/m2
03:24 3 °C 2 °C 1026.65 hPa N 5 km/h 4 km/h 96% 0 mm 0 W/m2
03:29 3 °C 2 °C 1026.72 hPa N 6 km/h 5 km/h 96% 0 mm 0 W/m2
03:34 3 °C 2 °C 1026.79 hPa N 6 km/h 4 km/h 97% 0 mm 0 W/m2
03:39 3 °C 2 °C 1026.79 hPa N 5 km/h 4 km/h 97% 0 mm 0 W/m2
03:44 3 °C 2 °C 1026.79 hPa N 6 km/h 6 km/h 97% 0 mm 0 W/m2
03:49 3 °C 2 °C 1026.82 hPa N 6 km/h 5 km/h 97% 0 mm 0 W/m2
03:54 3 °C 2 °C 1026.92 hPa N 6 km/h 5 km/h 97% 0 mm 0 W/m2
03:59 3 °C 2 °C 1026.96 hPa N 4 km/h 5 km/h 96% 0 mm 0 W/m2
04:04 3 °C 2 °C 1026.99 hPa N 6 km/h 5 km/h 96% 0 mm 0 W/m2
04:09 3 °C 2 °C 1026.92 hPa NNE 7 km/h 7 km/h 96% 0 mm 0 W/m2
04:14 3 °C 2 °C 1026.85 hPa N 7 km/h 7 km/h 96% 0 mm 0 W/m2
04:19 3 °C 2 °C 1026.82 hPa N 6 km/h 6 km/h 96% 0 mm 0 W/m2
04:24 3 °C 2 °C 1026.82 hPa NNE 5 km/h 5 km/h 96% 0 mm 0 W/m2
04:29 3 °C 2 °C 1026.72 hPa NNE 5 km/h 4 km/h 96% 0 mm 0 W/m2
04:34 3 °C 2 °C 1026.62 hPa Calm     96% 0 mm 0 W/m2
04:39 3 °C 2 °C 1026.65 hPa NE 3 km/h 1 km/h 96% 0 mm 0 W/m2
04:44 3 °C 2 °C 1026.65 hPa NE 2 km/h 1 km/h 96% 0 mm 0 W/m2
04:49 3 °C 3 °C 1026.75 hPa NE 1 km/h 1 km/h 97% 0 mm 0 W/m2
04:54 3 °C 3 °C 1026.82 hPa Calm     96% 0 mm 0 W/m2
04:59 3 °C 3 °C 1026.89 hPa NE 1 km/h 1 km/h 96% 0 mm 0 W/m2
05:04 3 °C 3 °C 1026.89 hPa NE 3 km/h 3 km/h 96% 0 mm 0 W/m2
05:09 3 °C 3 °C 1026.96 hPa N 5 km/h 5 km/h 96% 0 mm 0 W/m2
05:14 3 °C 2 °C 1026.99 hPa N 6 km/h 5 km/h 96% 0 mm 0 W/m2
05:19 3 °C 2 °C 1027.09 hPa N 6 km/h 4 km/h 96% 0 mm 0 W/m2
05:24 3 °C 2 °C 1027.09 hPa N 5 km/h 5 km/h 96% 0 mm 0 W/m2
05:29 3 °C 2 °C 1027.13 hPa N 3 km/h 3 km/h 96% 0 mm 0 W/m2
05:34 3 °C 2 °C 1027.13 hPa N 4 km/h 4 km/h 96% 0 mm 0 W/m2
05:39 3 °C 2 °C 1027.09 hPa N 6 km/h 5 km/h 96% 0 mm 0 W/m2
05:44 3 °C 2 °C 1027.13 hPa NNE 5 km/h 5 km/h 96% 0 mm 0 W/m2
05:49 3 °C 2 °C 1027.16 hPa N 6 km/h 5 km/h 96% 0 mm 0 W/m2
05:54 3 °C 2 °C 1027.26 hPa N 6 km/h 4 km/h 96% 0 mm 0 W/m2
05:59 3 °C 2 °C 1027.29 hPa N 5 km/h 4 km/h 96% 0 mm 0 W/m2
06:04 3 °C 2 °C 1027.29 hPa N 6 km/h 5 km/h 96% 0 mm 0 W/m2
06:09 3 °C 2 °C 1027.4 hPa NNE 6 km/h 3 km/h 96% 0 mm 0 W/m2
06:14 3 °C 2 °C 1027.5 hPa NNE 3 km/h 3 km/h 96% 0 mm 0 W/m2
06:19 3 °C 2 °C 1027.5 hPa NNE 4 km/h 2 km/h 96% 0 mm 0 W/m2
06:24 3 °C 2 °C 1027.46 hPa NNE 5 km/h 4 km/h 96% 0 mm 0 W/m2
06:29 3 °C 2 °C 1027.43 hPa NNE 6 km/h 5 km/h 96% 0 mm 0 W/m2
06:34 3 °C 3 °C 1027.46 hPa NNE 6 km/h 6 km/h 97% 0 mm 0 W/m2
06:39 3 °C 3 °C 1027.53 hPa N 6 km/h 5 km/h 96% 0 mm 0 W/m2
06:44 3 °C 3 °C 1027.67 hPa N 5 km/h 5 km/h 97% 0 mm 0 W/m2
06:49 3 °C 3 °C 1027.7 hPa N 7 km/h 7 km/h 97% 0 mm 0 W/m2
06:54 3 °C 3 °C 1027.84 hPa N 8 km/h 7 km/h 97% 0 mm 0 W/m2
06:59 3 °C 3 °C 1027.9 hPa N 6 km/h 5 km/h 96% 0 mm 5 W/m2
07:04 3 °C 3 °C 1027.97 hPa N 7 km/h 7 km/h 96% 0 mm 5 W/m2
07:09 3 °C 3 °C 1027.97 hPa N 6 km/h 5 km/h 97% 0 mm 5 W/m2
07:14 3 °C 3 °C 1027.94 hPa N 7 km/h 7 km/h 96% 0 mm 5 W/m2
07:19 3 °C 3 °C 1027.97 hPa N 6 km/h 4 km/h 96% 0 mm 5 W/m2
07:24 3 °C 3 °C 1028.07 hPa N 6 km/h 6 km/h 96% 0 mm 7 W/m2
07:29 3 °C 3 °C 1028.07 hPa N 7 km/h 5 km/h 96% 0 mm 7 W/m2
07:34 3 °C 3 °C 1028.11 hPa N 5 km/h 5 km/h 97% 0 mm 9 W/m2
07:39 3 °C 3 °C 1028.11 hPa N 2 km/h 2 km/h 97% 0 mm 11 W/m2
07:44 3 °C 3 °C 1028.11 hPa E 3 km/h 2 km/h 97% 0 mm 11 W/m2
07:49 3 °C 3 °C 1028.07 hPa SE 2 km/h 3 km/h 97% 0 mm 11 W/m2
07:54 4 °C 3 °C 1028.18 hPa SSE 5 km/h 4 km/h 97% 0 mm 12 W/m2
07:59 4 °C 3 °C 1028.18 hPa SSE 5 km/h 4 km/h 97% 0 mm 16 W/m2
08:04 4 °C 3 °C 1028.21 hPa SSE 6 km/h 5 km/h 97% 0 mm 16 W/m2
08:09 4 °C 3 °C 1028.28 hPa SSE 4 km/h 3 km/h 97% 0 mm 18 W/m2
08:14 4 °C 3 °C 1028.38 hPa SSE 4 km/h 4 km/h 97% 0 mm 16 W/m2
08:19 4 °C 3 °C 1028.41 hPa SSE 5 km/h 4 km/h 97% 0 mm 16 W/m2
08:24 4 °C 3 °C 1028.45 hPa SE 6 km/h 5 km/h 97% 0 mm 26 W/m2
08:29 4 °C 3 °C 1028.48 hPa ESE 9 km/h 9 km/h 97% 0 mm 30 W/m2
08:34 4 °C 3 °C 1028.51 hPa ESE 10 km/h 9 km/h 97% 0 mm 32 W/m2
08:39 4 °C 3 °C 1028.55 hPa ESE 8 km/h 6 km/h 97% 0 mm 33 W/m2
08:44 4 °C 3 °C 1028.58 hPa ESE 8 km/h 7 km/h 97% 0 mm 33 W/m2
08:49 4 °C 3 °C 1028.72 hPa ESE 8 km/h 7 km/h 97% 0 mm 40 W/m2
08:54 4 °C 3 °C 1028.68 hPa E 10 km/h 8 km/h 97% 0 mm 44 W/m2
08:59 4 °C 3 °C 1028.68 hPa E 8 km/h 6 km/h 97% 0 mm 47 W/m2
09:04 4 °C 3 °C 1028.82 hPa E 9 km/h 7 km/h 97% 0 mm 49 W/m2
09:09 4 °C 3 °C 1028.85 hPa ESE 8 km/h 6 km/h 97% 0 mm 51 W/m2
09:14 4 °C 3 °C 1028.89 hPa E 7 km/h 6 km/h 97% 0 mm 56 W/m2
09:19 4 °C 3 °C 1028.95 hPa E 9 km/h 7 km/h 97% 0 mm 63 W/m2
09:24 4 °C 3 °C 1028.99 hPa ESE 8 km/h 6 km/h 98% 0 mm 72 W/m2
09:29 4 °C 3 °C 1029.02 hPa E 11 km/h 8 km/h 98% 0 mm 72 W/m2
09:34 4 °C 3 °C 1029.06 hPa E 10 km/h 7 km/h 98% 0 mm 74 W/m2
09:39 4 °C 4 °C 1029.02 hPa E 9 km/h 8 km/h 98% 0 mm 70 W/m2
09:44 4 °C 4 °C 1029.09 hPa E 6 km/h 5 km/h 98% 0 mm 70 W/m2
09:49 4 °C 4 °C 1029.12 hPa E 8 km/h 8 km/h 98% 0 mm 58 W/m2
09:54 4 °C 4 °C 1029.19 hPa ENE 9 km/h 8 km/h 98% 0 mm 56 W/m2
09:59 4 °C 4 °C 1029.19 hPa E 9 km/h 8 km/h 98% 0 mm 53 W/m2
10:04 4 °C 4 °C 1029.19 hPa ENE 8 km/h 6 km/h 98% 0 mm 49 W/m2
10:09 4 °C 4 °C 1029.16 hPa E 9 km/h 7 km/h 98% 0 mm 51 W/m2
10:14 4 °C 4 °C 1029.19 hPa E 8 km/h 6 km/h 98% 0 mm 49 W/m2
10:19 4 °C 4 °C 1029.19 hPa E 9 km/h 7 km/h 98% 0 mm 51 W/m2
10:24 4 °C 4 °C 1029.16 hPa E 7 km/h 5 km/h 98% 0 mm 56 W/m2
10:29 4 °C 4 °C 1029.19 hPa E 8 km/h 6 km/h 98% 0 mm 56 W/m2
10:34 4 °C 4 °C 1029.19 hPa ESE 8 km/h 7 km/h 98% 0 mm 54 W/m2
10:39 4 °C 4 °C 1029.19 hPa E 9 km/h 6 km/h 98% 0 mm 56 W/m2
10:44 4 °C 4 °C 1029.26 hPa ESE 7 km/h 6 km/h 98% 0 mm 60 W/m2
10:49 4 °C 4 °C 1029.36 hPa E 7 km/h 6 km/h 98% 0 mm 60 W/m2
10:54 4 °C 4 °C 1029.39 hPa ESE 8 km/h 7 km/h 98% 0 mm 62 W/m2
10:59 4 °C 4 °C 1029.39 hPa E 9 km/h 7 km/h 98% 0 mm 60 W/m2
11:04 4 °C 4 °C 1029.43 hPa ESE 6 km/h 4 km/h 98% 0 mm 60 W/m2
11:09 4 °C 4 °C 1029.46 hPa ESE 9 km/h 9 km/h 98% 0 mm 53 W/m2
11:14 4 °C 4 °C 1029.46 hPa E 8 km/h 8 km/h 98% 0 mm 49 W/m2
11:19 4 °C 4 °C 1029.5 hPa E 12 km/h 9 km/h 98% 0 mm 53 W/m2
11:24 4 °C 4 °C 1029.5 hPa ESE 13 km/h 13 km/h 98% 0 mm 56 W/m2
11:29 4 °C 4 °C 1029.53 hPa E 14 km/h 11 km/h 98% 0 mm 58 W/m2
11:34 4 °C 4 °C 1029.56 hPa ESE 12 km/h 11 km/h 98% 0 mm 56 W/m2
11:39 4 °C 4 °C 1029.6 hPa ESE 13 km/h 10 km/h 98% 0 mm 60 W/m2
11:44 4 °C 4 °C 1029.63 hPa ESE 11 km/h 10 km/h 98% 0 mm 58 W/m2
11:49 4 °C 4 °C 1029.63 hPa ESE 10 km/h 9 km/h 98% 0 mm 67 W/m2
11:54 4 °C 4 °C 1029.7 hPa ESE 12 km/h 10 km/h 98% 0 mm 69 W/m2
11:59 4 °C 4 °C 1029.7 hPa ESE 9 km/h 9 km/h 98% 0 mm 81 W/m2
12:04 4 °C 4 °C 1029.7 hPa ESE 10 km/h 8 km/h 98% 0 mm 81 W/m2
12:09 4 °C 4 °C 1029.7 hPa SE 10 km/h 8 km/h 98% 0 mm 76 W/m2
12:14 4 °C 4 °C 1029.77 hPa SE 12 km/h 9 km/h 98% 0 mm 83 W/m2
12:19 4 °C 4 °C 1029.77 hPa SE 12 km/h 12 km/h 98% 0 mm 88 W/m2
12:24 4 °C 4 °C 1029.7 hPa SE 12 km/h 11 km/h 98% 0 mm 109 W/m2
12:29 4 °C 4 °C 1029.73 hPa E 14 km/h 13 km/h 98% 0 mm 83 W/m2
12:34 4 °C 4 °C 1029.8 hPa ESE 12 km/h 13 km/h 98% 0 mm 74 W/m2
12:39 4 °C 4 °C 1029.77 hPa ESE 14 km/h 11 km/h 98% 0 mm 84 W/m2
12:44 4 °C 4 °C 1029.73 hPa ESE 16 km/h 13 km/h 98% 0 mm 86 W/m2
12:49 4 °C 4 °C 1029.77 hPa ESE 16 km/h 12 km/h 98% 0 mm 72 W/m2
12:54 4 °C 4 °C 1029.73 hPa ESE 16 km/h 13 km/h 98% 0 mm 86 W/m2
12:59 4 °C 4 °C 1029.7 hPa ESE 14 km/h 13 km/h 98% 0 mm 105 W/m2
13:04 4 °C 4 °C 1029.7 hPa ESE 14 km/h 12 km/h 98% 0 mm 107 W/m2
13:09 4 °C 4 °C 1029.67 hPa E 14 km/h 11 km/h 98% 0 mm 109 W/m2
13:14 4 °C 4 °C 1029.67 hPa E 16 km/h 12 km/h 98% 0 mm 104 W/m2
13:19 4 °C 4 °C 1029.7 hPa ESE 17 km/h 15 km/h 98% 0 mm 125 W/m2
13:24 4 °C 4 °C 1029.77 hPa ESE 15 km/h 11 km/h 98% 0 mm 169 W/m2
13:29 4 °C 4 °C 1029.77 hPa E 15 km/h 13 km/h 98% 0 mm 169 W/m2
13:34 4 °C 4 °C 1029.73 hPa E 17 km/h 14 km/h 98% 0 mm 137 W/m2
13:39 4 °C 4 °C 1029.77 hPa E 15 km/h 12 km/h 98% 0 mm 139 W/m2
13:44 4 °C 4 °C 1029.83 hPa E 14 km/h 13 km/h 98% 0 mm 149 W/m2
13:49 4 °C 4 °C 1029.83 hPa E 15 km/h 12 km/h 98% 0 mm 141 W/m2
13:54 4 °C 4 °C 1029.9 hPa ESE 16 km/h 13 km/h 98% 0 mm 118 W/m2
13:59 4 °C 4 °C 1029.94 hPa E 16 km/h 12 km/h 98% 0 mm 109 W/m2
14:04 4 °C 4 °C 1029.9 hPa E 17 km/h 15 km/h 98% 0 mm 113 W/m2
14:09 4 °C 4 °C 1029.9 hPa E 17 km/h 14 km/h 98% 0 mm 100 W/m2
14:14 4 °C 4 °C 1029.9 hPa E 16 km/h 14 km/h 98% 0 mm 109 W/m2
14:19 4 °C 4 °C 1029.9 hPa E 18 km/h 15 km/h 98% 0 mm 90 W/m2
14:24 4 °C 4 °C 1029.94 hPa E 13 km/h 11 km/h 98% 0 mm 90 W/m2
14:29 4 °C 4 °C 1029.94 hPa E 12 km/h 10 km/h 98% 0 mm 90 W/m2
14:34 4 °C 4 °C 1029.94 hPa E 15 km/h 13 km/h 98% 0 mm 88 W/m2
14:39 4 °C 4 °C 1029.94 hPa E 15 km/h 12 km/h 98% 0 mm 100 W/m2
14:44 4 °C 4 °C 1029.9 hPa ENE 15 km/h 12 km/h 98% 0 mm 118 W/m2
14:49 4 °C 4 °C 1029.94 hPa ENE 16 km/h 13 km/h 98% 0 mm 127 W/m2
14:54 4 °C 4 °C 1029.97 hPa E 17 km/h 13 km/h 98% 0 mm 118 W/m2
14:59 4 °C 4 °C 1029.9 hPa E 18 km/h 15 km/h 98% 0 mm 123 W/m2
15:04 4 °C 4 °C 1029.94 hPa ENE 17 km/h 14 km/h 98% 0 mm 118 W/m2
15:09 4 °C 4 °C 1030.04 hPa E 17 km/h 14 km/h 98% 0 mm 114 W/m2
15:14 4 °C 4 °C 1030 hPa E 16 km/h 12 km/h 98% 0 mm 104 W/m2
15:19 4 °C 4 °C 1029.94 hPa ENE 15 km/h 12 km/h 98% 0 mm 107 W/m2
15:24 4 °C 4 °C 1029.94 hPa E 15 km/h 12 km/h 97% 0 mm 118 W/m2
15:29 4 °C 4 °C 1029.94 hPa ENE 13 km/h 11 km/h 97% 0 mm 104 W/m2
15:34 4 °C 4 °C 1029.9 hPa NE 14 km/h 12 km/h 97% 0 mm 97 W/m2
15:39 4 °C 4 °C 1029.9 hPa ENE 14 km/h 13 km/h 97% 0 mm 88 W/m2
15:44 4 °C 4 °C 1029.9 hPa ENE 16 km/h 12 km/h 97% 0 mm 76 W/m2
15:49 4 °C 4 °C 1029.9 hPa E 14 km/h 10 km/h 97% 0 mm 62 W/m2
15:54 4 °C 4 °C 1029.87 hPa E 16 km/h 14 km/h 97% 0 mm 67 W/m2
15:59 4 °C 4 °C 1029.87 hPa E 13 km/h 11 km/h 97% 0 mm 58 W/m2
16:04 4 °C 4 °C 1029.87 hPa E 15 km/h 13 km/h 97% 0 mm 54 W/m2
16:09 4 °C 4 °C 1029.9 hPa ENE 15 km/h 12 km/h 97% 0 mm 49 W/m2
16:14 4 °C 4 °C 1029.9 hPa E 15 km/h 12 km/h 97% 0 mm 58 W/m2
16:19 4 °C 4 °C 1029.87 hPa ENE 14 km/h 13 km/h 97% 0 mm 56 W/m2
16:24 4 °C 4 °C 1029.8 hPa ENE 15 km/h 12 km/h 97% 0 mm 46 W/m2
16:29 4 °C 4 °C 1029.77 hPa NE 17 km/h 14 km/h 97% 0 mm 49 W/m2
16:34 4 °C 4 °C 1029.77 hPa ENE 14 km/h 13 km/h 97% 0 mm 53 W/m2
16:39 4 °C 4 °C 1029.67 hPa NE 16 km/h 13 km/h 97% 0 mm 56 W/m2
16:44 4 °C 4 °C 1029.63 hPa NE 18 km/h 13 km/h 97% 0 mm 46 W/m2
16:49 4 °C 4 °C 1029.67 hPa NE 16 km/h 14 km/h 97% 0 mm 44 W/m2
16:54 4 °C 4 °C 1029.67 hPa ENE 14 km/h 12 km/h 98% 0 mm 40 W/m2
16:59 4 °C 4 °C 1029.63 hPa E 18 km/h 14 km/h 97% 0 mm 42 W/m2
17:04 4 °C 4 °C 1029.6 hPa NE 16 km/h 14 km/h 97% 0 mm 40 W/m2
17:09 4 °C 4 °C 1029.6 hPa NE 16 km/h 14 km/h 97% 0 mm 35 W/m2
17:14 4 °C 4 °C 1029.6 hPa ENE 15 km/h 11 km/h 97% 0 mm 35 W/m2
17:19 4 °C 4 °C 1029.6 hPa ENE 16 km/h 13 km/h 97% 0 mm 37 W/m2
17:24 4 °C 4 °C 1029.56 hPa NE 17 km/h 14 km/h 97% 0 mm 30 W/m2
17:29 4 °C 4 °C 1029.46 hPa NE 21 km/h 16 km/h 97% 0 mm 28 W/m2
17:34 4 °C 4 °C 1029.46 hPa NE 19 km/h 17 km/h 97% 0 mm 28 W/m2
17:39 4 °C 4 °C 1029.46 hPa NNE 20 km/h 18 km/h 97% 0 mm 21 W/m2
17:44 4 °C 4 °C 1029.43 hPa NE 21 km/h 19 km/h 97% 0 mm 18 W/m2
17:49 4 °C 4 °C 1029.36 hPa NE 19 km/h 15 km/h 97% 0 mm 14 W/m2
17:54 4 °C 4 °C 1029.36 hPa NE 19 km/h 19 km/h 97% 0 mm 14 W/m2
17:59 4 °C 4 °C 1029.36 hPa NE 20 km/h 20 km/h 97% 0 mm 12 W/m2
18:04 4 °C 4 °C 1029.39 hPa NE 18 km/h 14 km/h 97% 0 mm 12 W/m2
18:09 4 °C 4 °C 1029.33 hPa NE 19 km/h 15 km/h 97% 0 mm 9 W/m2
18:14 4 °C 4 °C 1029.23 hPa NNE 20 km/h 16 km/h 97% 0 mm 5 W/m2
18:19 4 °C 4 °C 1029.16 hPa NE 20 km/h 18 km/h 97% 0 mm 0 W/m2
Compliments of Weather Underground - 2 mb